Time;durP1;ratioP1;P1;durP2;ratioP2;P2;SDS_P1;SDS_P2;PMS_P1;PMS_P2;Temp;Humidity;BMP_temperature;BMP_pressure;BME280_temperature;BME280_humidity;BME280_pressure;Samples;Min_cycle;Max_cycle;Signal;HPM_P1;HPM_P2
2023/07/20 00:01:59;;;;;;;5.90;5.20;;;;;;;;;;5013844;28;20183;-63
2023/07/20 00:04:25;;;;;;;9.13;5.27;;;;;;;;;;5013632;28;20645;-63
2023/07/20 00:06:51;;;;;;;8.20;5.50;;;;;;;;;;5013485;28;20184;-62
2023/07/20 00:09:17;;;;;;;7.17;5.27;;;;;;;;;;5013070;28;20287;-64
2023/07/20 00:11:49;;;;;;;11.17;5.37;;;;;;;;;;5013174;28;20183;-63
2023/07/20 00:14:15;;;;;;;9.37;5.73;;;;;;;;;;5014297;28;20251;-63
2023/07/20 00:16:41;;;;;;;11.20;5.53;;;;;;;;;;5013288;28;20282;-63
2023/07/20 00:19:08;;;;;;;8.63;5.73;;;;;;;;;;5013067;28;20218;-65
2023/07/20 00:21:34;;;;;;;11.27;5.93;;;;;;;;;;5013063;28;20182;-63
2023/07/20 00:24:00;;;;;;;10.43;5.87;;;;;;;;;;5013089;28;20262;-63
2023/07/20 00:26:25;;;;;;;10.87;5.77;;;;;;;;;;5012977;28;20207;-63
2023/07/20 00:28:51;;;;;;;11.10;5.77;;;;;;;;;;5013144;28;20227;-64
2023/07/20 00:31:18;;;;;;;8.47;5.80;;;;;;;;;;5012850;28;20661;-63
2023/07/20 00:33:43;;;;;;;12.23;5.67;;;;;;;;;;4995314;28;20654;-64
2023/07/20 00:36:09;;;;;;;8.20;5.70;;;;;;;;;;5013072;28;20180;-63
2023/07/20 00:38:35;;;;;;;11.57;5.57;;;;;;;;;;5012819;28;20215;-63
2023/07/20 00:41:01;;;;;;;8.63;4.87;;;;;;;;;;5013491;28;20230;-63
2023/07/20 00:43:27;;;;;;;9.43;5.50;;;;;;;;;;4996681;28;20547;-63
2023/07/20 00:45:53;;;;;;;8.17;5.23;;;;;;;;;;5013764;28;20240;-64
2023/07/20 00:48:20;;;;;;;6.23;5.40;;;;;;;;;;5013455;28;20184;-63
2023/07/20 00:50:46;;;;;;;8.57;5.77;;;;;;;;;;5015912;28;20200;-63
2023/07/20 00:53:12;;;;;;;8.60;5.40;;;;;;;;;;5017326;28;20668;-63
2023/07/20 00:55:38;;;;;;;10.80;5.93;;;;;;;;;;5017320;28;20258;-63
2023/07/20 00:58:04;;;;;;;10.10;5.63;;;;;;;;;;4998504;28;20203;-63
2023/07/20 01:00:30;;;;;;;7.80;5.70;;;;;;;;;;5016370;28;20251;-64
2023/07/20 01:02:56;;;;;;;8.40;5.57;;;;;;;;;;4998516;28;20180;-63
2023/07/20 01:05:24;;;;;;;7.70;5.43;;;;;;;;;;5016048;28;20223;-63
2023/07/20 01:07:56;;;;;;;8.20;5.40;;;;;;;;;;4998435;28;20291;-64
2023/07/20 01:10:24;;;;;;;6.10;5.20;;;;;;;;;;5016085;28;20227;-63
2023/07/20 01:12:54;;;;;;;6.77;5.50;;;;;;;;;;5015974;28;20180;-63
2023/07/20 01:15:20;;;;;;;6.73;5.50;;;;;;;;;;5015839;28;20187;-63
2023/07/20 01:17:46;;;;;;;8.00;5.47;;;;;;;;;;4998149;28;20207;-63
2023/07/20 01:20:14;;;;;;;7.43;5.27;;;;;;;;;;5015810;28;20227;-63
2023/07/20 01:22:58;;;;;;;9.47;5.93;;;;;;;;;;5015698;28;20171;-63
2023/07/20 01:25:24;;;;;;;8.53;6.10;;;;;;;;;;5015554;28;20179;-63
2023/07/20 01:28:08;;;;;;;7.60;5.43;;;;;;;;;;5015666;28;20553;-63
2023/07/20 01:30:34;;;;;;;8.17;5.97;;;;;;;;;;5015565;28;20580;-63
2023/07/20 01:33:01;;;;;;;11.20;6.77;;;;;;;;;;5015526;28;20184;-63
2023/07/20 01:35:28;;;;;;;13.17;7.73;;;;;;;;;;5015441;28;20562;-63
2023/07/20 01:37:54;;;;;;;12.83;8.30;;;;;;;;;;5015598;28;20286;-62
2023/07/20 01:40:20;;;;;;;14.27;8.90;;;;;;;;;;5015254;28;20199;-61
2023/07/20 01:42:47;;;;;;;10.60;8.77;;;;;;;;;;5015588;28;20176;-62
2023/07/20 01:45:13;;;;;;;10.37;9.17;;;;;;;;;;5015285;28;20206;-61
2023/07/20 01:47:39;;;;;;;20.33;10.53;;;;;;;;;;5015222;28;20603;-62
2023/07/20 01:50:05;;;;;;;13.40;10.17;;;;;;;;;;5015391;28;20259;-62
2023/07/20 01:52:31;;;;;;;18.80;10.83;;;;;;;;;;5015283;28;20191;-62
2023/07/20 01:54:57;;;;;;;19.67;11.17;;;;;;;;;;5015413;28;20180;-62
2023/07/20 01:57:23;;;;;;;18.50;11.67;;;;;;;;;;5015083;28;20310;-62
2023/07/20 01:59:49;;;;;;;13.30;11.07;;;;;;;;;;5015010;28;20235;-63
2023/07/20 02:02:15;;;;;;;17.80;11.17;;;;;;;;;;5015005;28;20176;-62
2023/07/20 02:04:41;;;;;;;14.23;11.43;;;;;;;;;;5014910;28;20183;-62
2023/07/20 02:07:07;;;;;;;18.50;11.93;;;;;;;;;;5015363;28;20184;-62
2023/07/20 02:09:33;;;;;;;17.33;13.10;;;;;;;;;;5014672;28;20199;-62
2023/07/20 02:11:59;;;;;;;17.40;13.03;;;;;;;;;;5014999;28;20175;-62
2023/07/20 02:14:24;;;;;;;19.03;12.77;;;;;;;;;;5014621;28;20176;-62
2023/07/20 02:16:52;;;;;;;17.67;12.20;;;;;;;;;;5014938;28;20208;-62
2023/07/20 02:19:18;;;;;;;15.80;12.13;;;;;;;;;;5014516;28;20218;-61
2023/07/20 02:21:45;;;;;;;18.63;13.87;;;;;;;;;;5014902;28;20238;-63
2023/07/20 02:24:11;;;;;;;21.33;13.07;;;;;;;;;;5014849;28;20181;-62
2023/07/20 02:26:37;;;;;;;17.77;12.87;;;;;;;;;;5014561;28;20719;-62
2023/07/20 02:29:04;;;;;;;19.07;13.07;;;;;;;;;;5014423;28;20195;-62
2023/07/20 02:31:30;;;;;;;20.30;14.03;;;;;;;;;;5014709;28;20168;-63
2023/07/20 02:33:56;;;;;;;17.77;13.57;;;;;;;;;;5014339;28;20176;-62
2023/07/20 02:36:22;;;;;;;20.83;14.70;;;;;;;;;;5014484;28;20176;-62
2023/07/20 02:38:48;;;;;;;24.63;14.83;;;;;;;;;;5014496;28;20663;-62
2023/07/20 02:41:14;;;;;;;18.10;13.80;;;;;;;;;;5014203;28;20172;-62
2023/07/20 02:43:40;;;;;;;23.50;14.30;;;;;;;;;;5014458;28;20180;-62
2023/07/20 02:46:06;;;;;;;21.50;14.87;;;;;;;;;;5014181;28;20258;-62
2023/07/20 02:48:32;;;;;;;19.93;14.60;;;;;;;;;;5014303;28;20195;-63
2023/07/20 02:50:58;;;;;;;22.20;14.43;;;;;;;;;;4996901;28;20187;-63
2023/07/20 02:53:24;;;;;;;21.90;14.37;;;;;;;;;;5014409;28;20180;-62
2023/07/20 02:55:50;;;;;;;18.83;14.33;;;;;;;;;;5014225;28;20719;-62
2023/07/20 02:58:16;;;;;;;20.00;14.70;;;;;;;;;;5014166;28;20672;-62
2023/07/20 03:00:43;;;;;;;17.63;14.57;;;;;;;;;;5013813;28;20569;-62
2023/07/20 03:03:09;;;;;;;21.43;14.10;;;;;;;;;;5013876;28;20168;-62
2023/07/20 03:05:39;;;;;;;20.83;13.90;;;;;;;;;;5013837;28;20176;-62
2023/07/20 03:08:06;;;;;;;25.77;15.93;;;;;;;;;;5013849;28;20259;-62
2023/07/20 03:10:32;;;;;;;22.93;14.90;;;;;;;;;;5013698;28;20203;-62
2023/07/20 03:12:58;;;;;;;21.33;14.23;;;;;;;;;;4995855;28;20203;-62
2023/07/20 03:15:24;;;;;;;21.93;14.27;;;;;;;;;;5013654;28;20183;-62
2023/07/20 03:17:51;;;;;;;20.10;13.70;;;;;;;;;;5013523;28;20287;-62
2023/07/20 03:20:17;;;;;;;19.87;15.50;;;;;;;;;;5013537;28;20756;-62
2023/07/20 03:22:43;;;;;;;22.27;15.00;;;;;;;;;;5013799;28;20259;-62
2023/07/20 03:25:09;;;;;;;17.90;14.23;;;;;;;;;;5013915;28;20583;-62
2023/07/20 03:27:35;;;;;;;17.93;14.37;;;;;;;;;;5013518;28;20226;-62
2023/07/20 03:30:01;;;;;;;20.73;15.03;;;;;;;;;;4995760;28;20200;-62
2023/07/20 03:32:27;;;;;;;19.70;14.20;;;;;;;;;;4995864;28;20183;-63
2023/07/20 03:34:53;;;;;;;23.43;15.03;;;;;;;;;;5013654;28;20630;-62
2023/07/20 03:37:19;;;;;;;23.17;15.50;;;;;;;;;;5013611;28;20200;-62
2023/07/20 03:39:45;;;;;;;22.53;16.50;;;;;;;;;;5013221;28;20195;-62
2023/07/20 03:42:11;;;;;;;20.73;16.03;;;;;;;;;;5013383;28;20183;-62
2023/07/20 03:44:37;;;;;;;19.93;17.20;;;;;;;;;;5013966;28;20184;-62
2023/07/20 03:47:04;;;;;;;25.30;17.97;;;;;;;;;;5013294;28;20234;-62
2023/07/20 03:49:30;;;;;;;26.93;18.73;;;;;;;;;;5013218;28;20195;-63
2023/07/20 03:51:56;;;;;;;21.63;18.33;;;;;;;;;;5013863;28;20641;-61
2023/07/20 03:54:22;;;;;;;23.27;19.43;;;;;;;;;;5013158;28;20180;-62
2023/07/20 03:56:48;;;;;;;25.63;19.03;;;;;;;;;;5013395;28;20208;-62
2023/07/20 03:59:15;;;;;;;23.00;18.57;;;;;;;;;;5013138;28;20267;-62
2023/07/20 04:01:40;;;;;;;28.07;22.00;;;;;;;;;;5013220;28;20675;-62
2023/07/20 04:04:07;;;;;;;32.60;22.07;;;;;;;;;;4995534;28;20175;-62
2023/07/20 04:06:33;;;;;;;32.60;22.40;;;;;;;;;;5013195;28;20184;-62
2023/07/20 04:08:59;;;;;;;27.37;23.43;;;;;;;;;;5013246;28;20204;-63
2023/07/20 04:11:25;;;;;;;31.77;24.37;;;;;;;;;;5013034;28;20268;-62
2023/07/20 04:13:51;;;;;;;26.27;23.47;;;;;;;;;;5013152;28;20212;-62
2023/07/20 04:16:17;;;;;;;30.67;23.70;;;;;;;;;;5013089;28;20182;-62
2023/07/20 04:18:43;;;;;;;29.20;23.70;;;;;;;;;;5012782;28;20200;-62
2023/07/20 04:21:09;;;;;;;28.87;24.37;;;;;;;;;;5013002;28;20176;-62
2023/07/20 04:23:36;;;;;;;32.47;24.93;;;;;;;;;;4995447;28;20259;-62
2023/07/20 04:26:03;;;;;;;31.80;25.00;;;;;;;;;;5016012;28;20207;-62
2023/07/20 04:28:29;;;;;;;29.90;24.77;;;;;;;;;;5016918;28;20596;-63
2023/07/20 04:30:55;;;;;;;36.00;25.80;;;;;;;;;;5016859;28;20180;-62
2023/07/20 04:33:20;;;;;;;30.17;25.13;;;;;;;;;;5016880;28;20186;-62
2023/07/20 04:35:47;;;;;;;30.70;23.87;;;;;;;;;;5016674;28;20176;-62
2023/07/20 04:38:13;;;;;;;28.63;23.20;;;;;;;;;;5016415;28;20203;-63
2023/07/20 04:40:39;;;;;;;33.73;25.87;;;;;;;;;;5016334;28;20191;-63
2023/07/20 04:43:05;;;;;;;28.90;25.03;;;;;;;;;;5016767;28;20262;-63
2023/07/20 04:45:31;;;;;;;28.10;24.37;;;;;;;;;;5016409;28;20522;-62
2023/07/20 04:47:57;;;;;;;37.73;24.33;;;;;;;;;;4998771;28;20258;-63
2023/07/20 04:50:25;;;;;;;31.37;25.60;;;;;;;;;;5016462;28;20200;-62
2023/07/20 04:52:51;;;;;;;32.77;25.70;;;;;;;;;;5016413;28;20279;-63
2023/07/20 04:55:17;;;;;;;30.23;24.17;;;;;;;;;;5016710;28;20250;-63
2023/07/20 04:57:43;;;;;;;25.83;22.03;;;;;;;;;;5016404;28;20208;-62
2023/07/20 05:00:11;;;;;;;25.47;21.47;;;;;;;;;;5016196;28;20255;-63
2023/07/20 05:02:37;;;;;;;29.90;21.23;;;;;;;;;;5016056;28;20190;-63
2023/07/20 05:05:05;;;;;;;25.80;20.50;;;;;;;;;;5015989;28;20168;-62
2023/07/20 05:07:31;;;;;;;24.97;19.60;;;;;;;;;;5015990;28;20176;-63
2023/07/20 05:09:57;;;;;;;24.20;21.23;;;;;;;;;;5015829;28;20195;-62
2023/07/20 05:12:23;;;;;;;21.67;19.37;;;;;;;;;;5016148;28;20191;-63
2023/07/20 05:14:49;;;;;;;23.37;20.93;;;;;;;;;;5015837;28;20211;-63
2023/07/20 05:17:15;;;;;;;28.40;21.03;;;;;;;;;;4998390;28;20222;-62
2023/07/20 05:19:41;;;;;;;22.17;19.60;;;;;;;;;;5015646;28;20215;-62
2023/07/20 05:22:07;;;;;;;22.03;18.90;;;;;;;;;;5015796;28;20669;-63
2023/07/20 05:24:33;;;;;;;19.17;15.87;;;;;;;;;;5015562;28;20209;-63
2023/07/20 05:26:59;;;;;;;19.73;16.77;;;;;;;;;;5042937;22;20266;-69
2023/07/20 05:29:25;;;;;;;22.73;16.27;;;;;;;;;;5017596;28;20171;-69
2023/07/20 05:31:51;;;;;;;18.90;16.87;;;;;;;;;;5017652;28;20252;-69
2023/07/20 05:34:17;;;;;;;19.07;15.50;;;;;;;;;;5035260;28;20210;-69
2023/07/20 05:36:43;;;;;;;17.53;15.73;;;;;;;;;;5034730;28;20198;-69
2023/07/20 05:39:09;;;;;;;15.73;13.77;;;;;;;;;;5035135;28;20179;-69
2023/07/20 05:41:35;;;;;;;10.17;8.93;;;;;;;;;;5021658;28;20183;-69
2023/07/20 05:44:01;;;;;;;9.90;8.87;;;;;;;;;;5040903;28;20176;-69
2023/07/20 05:46:27;;;;;;;8.40;7.53;;;;;;;;;;5039948;28;20257;-69
2023/07/20 05:48:53;;;;;;;7.00;6.30;;;;;;;;;;5038861;28;20559;-69
2023/07/20 05:51:19;;;;;;;6.90;5.20;;;;;;;;;;5020262;28;20191;-69
2023/07/20 05:53:44;;;;;;;5.13;4.73;;;;;;;;;;5018552;28;20565;-69
2023/07/20 05:56:10;;;;;;;7.57;6.03;;;;;;;;;;5017614;28;20267;-68
2023/07/20 05:58:37;;;;;;;6.23;5.70;;;;;;;;;;5035111;28;20206;-69
2023/07/20 06:01:06;;;;;;;7.10;6.40;;;;;;;;;;5017020;28;20207;-68
2023/07/20 06:03:33;;;;;;;6.77;6.13;;;;;;;;;;5034893;28;20182;-69
2023/07/20 06:06:02;;;;;;;8.53;7.77;;;;;;;;;;5035006;28;20176;-69
2023/07/20 06:08:31;;;;;;;7.23;6.63;;;;;;;;;;5034642;28;20197;-68
2023/07/20 06:10:57;;;;;;;7.07;6.47;;;;;;;;;;5016794;28;20699;-68
2023/07/20 06:13:24;;;;;;;6.70;6.00;;;;;;;;;;5034540;28;20222;-69
2023/07/20 06:15:50;;;;;;;6.57;6.00;;;;;;;;;;5034448;28;20183;-69
2023/07/20 06:18:16;;;;;;;7.13;6.00;;;;;;;;;;5034216;28;20217;-69
2023/07/20 06:20:42;;;;;;;6.80;5.57;;;;;;;;;;5016670;28;20265;-69
2023/07/20 06:23:08;;;;;;;6.33;5.07;;;;;;;;;;5034614;28;20175;-70
2023/07/20 06:25:34;;;;;;;5.90;5.30;;;;;;;;;;5034273;28;20280;-69
2023/07/20 06:28:00;;;;;;;5.73;5.23;;;;;;;;;;5034029;28;20589;-69
2023/07/20 06:30:26;;;;;;;5.60;5.03;;;;;;;;;;5034429;28;20175;-69
2023/07/20 06:32:52;;;;;;;4.80;4.40;;;;;;;;;;5034214;28;20183;-69
2023/07/20 06:35:18;;;;;;;4.60;4.03;;;;;;;;;;5034142;28;20175;-69
2023/07/20 06:37:44;;;;;;;5.20;4.60;;;;;;;;;;5034164;28;20215;-68
2023/07/20 06:40:10;;;;;;;6.27;4.37;;;;;;;;;;5016256;28;20630;-68
2023/07/20 06:42:36;;;;;;;13.57;4.77;;;;;;;;;;5016184;28;20179;-69
2023/07/20 06:45:02;;;;;;;5.47;4.97;;;;;;;;;;5034453;28;20171;-69
2023/07/20 06:47:28;;;;;;;5.80;5.40;;;;;;;;;;5015233;28;20210;-69
2023/07/20 06:49:55;;;;;;;5.57;5.10;;;;;;;;;;5033741;28;20179;-69
2023/07/20 06:52:21;;;;;;;6.00;5.50;;;;;;;;;;5016112;28;20301;-69
2023/07/20 06:54:47;;;;;;;5.83;5.33;;;;;;;;;;5033822;28;20207;-69
2023/07/20 06:57:13;;;;;;;4.67;4.27;;;;;;;;;;5033570;28;20210;-69
2023/07/20 06:59:39;;;;;;;5.53;5.13;;;;;;;;;;5033641;28;20182;-68
2023/07/20 07:02:05;;;;;;;5.10;4.70;;;;;;;;;;5016991;28;20602;-68
2023/07/20 07:04:31;;;;;;;4.57;4.17;;;;;;;;;;5015919;28;20175;-69
2023/07/20 07:06:57;;;;;;;4.60;4.20;;;;;;;;;;5033396;28;20239;-69
2023/07/20 07:09:24;;;;;;;5.30;4.90;;;;;;;;;;5015654;28;20211;-69
2023/07/20 07:11:50;;;;;;;5.20;4.50;;;;;;;;;;5015767;28;20186;-69
2023/07/20 07:14:16;;;;;;;4.80;4.40;;;;;;;;;;5033375;28;20183;-69
2023/07/20 07:16:42;;;;;;;4.67;4.27;;;;;;;;;;5033807;28;20758;-69
2023/07/20 07:19:08;;;;;;;3.13;2.70;;;;;;;;;;5015645;28;20727;-69
2023/07/20 07:21:34;;;;;;;3.00;2.80;;;;;;;;;;5033315;28;20636;-69
2023/07/20 07:24:00;;;;;;;3.17;2.83;;;;;;;;;;5015542;28;20278;-69
2023/07/20 07:26:26;;;;;;;4.03;2.53;;;;;;;;;;5033203;28;20210;-69
2023/07/20 07:28:52;;;;;;;3.50;1.93;;;;;;;;;;5033540;28;20176;-69
2023/07/20 07:31:18;;;;;;;6.03;2.10;;;;;;;;;;5033339;28;20186;-68
2023/07/20 07:33:44;;;;;;;3.90;2.33;;;;;;;;;;5015499;28;20194;-68
2023/07/20 07:36:10;;;;;;;4.10;2.80;;;;;;;;;;5033047;28;20202;-68
2023/07/20 07:38:36;;;;;;;4.60;4.20;;;;;;;;;;5033376;28;20329;-68
2023/07/20 07:41:02;;;;;;;3.13;2.83;;;;;;;;;;5033103;28;20175;-69
2023/07/20 07:43:28;;;;;;;3.27;2.80;;;;;;;;;;5033269;28;20175;-69
2023/07/20 07:45:55;;;;;;;4.00;3.70;;;;;;;;;;5032983;28;20175;-68
2023/07/20 07:48:22;;;;;;;3.53;3.23;;;;;;;;;;5033071;28;20183;-68
2023/07/20 07:50:48;;;;;;;3.63;3.33;;;;;;;;;;5033267;28;20171;-68
2023/07/20 07:53:14;;;;;;;4.00;3.13;;;;;;;;;;5033458;28;20175;-68
2023/07/20 07:55:41;;;;;;;3.97;2.90;;;;;;;;;;5032941;28;20245;-68
2023/07/20 07:58:07;;;;;;;3.00;2.70;;;;;;;;;;5032879;28;20203;-68
2023/07/20 08:00:33;;;;;;;2.80;2.60;;;;;;;;;;5019107;28;20274;-68
2023/07/20 08:02:59;;;;;;;2.13;1.93;;;;;;;;;;5037042;28;20194;-69
2023/07/20 08:05:26;;;;;;;2.80;1.80;;;;;;;;;;5036857;28;20179;-68
2023/07/20 08:07:52;;;;;;;5.83;2.03;;;;;;;;;;5019150;28;20227;-68
2023/07/20 08:10:18;;;;;;;3.40;2.07;;;;;;;;;;5036827;28;20631;-68
2023/07/20 08:12:44;;;;;;;1.90;1.80;;;;;;;;;;5018931;28;20223;-69
2023/07/20 08:15:14;;;;;;;2.83;2.43;;;;;;;;;;5036987;28;20179;-69
2023/07/20 08:17:40;;;;;;;3.20;2.90;;;;;;;;;;5018768;28;20211;-68
2023/07/20 08:20:06;;;;;;;2.90;2.70;;;;;;;;;;5036694;28;20183;-68
2023/07/20 08:22:32;;;;;;;4.00;3.60;;;;;;;;;;5018804;28;20240;-68
2023/07/20 08:24:58;;;;;;;3.93;3.00;;;;;;;;;;5036722;28;20179;-68
2023/07/20 08:27:24;;;;;;;6.60;2.63;;;;;;;;;;5036373;28;20226;-69
2023/07/20 08:29:50;;;;;;;2.73;2.40;;;;;;;;;;5036447;28;20285;-68
2023/07/20 08:32:16;;;;;;;3.27;2.73;;;;;;;;;;5037034;28;20202;-68
2023/07/20 08:34:42;;;;;;;2.60;2.40;;;;;;;;;;5036359;28;20265;-69
2023/07/20 08:37:10;;;;;;;3.33;2.77;;;;;;;;;;5036225;28;20211;-69
2023/07/20 08:39:35;;;;;;;4.50;2.20;;;;;;;;;;5018728;28;20562;-68
2023/07/20 08:42:06;;;;;;;2.30;2.10;;;;;;;;;;5036720;28;20179;-69
2023/07/20 08:44:34;;;;;;;2.23;1.97;;;;;;;;;;5037392;28;20163;-69
2023/07/20 08:47:02;;;;;;;2.23;1.53;;;;;;;;;;5027071;28;20195;-70
2023/07/20 08:49:28;;;;;;;2.30;1.37;;;;;;;;;;5018682;28;20615;-69
2023/07/20 08:51:54;;;;;;;1.40;1.30;;;;;;;;;;5036408;28;20274;-69
2023/07/20 08:54:20;;;;;;;1.93;1.20;;;;;;;;;;5019463;28;20233;-69
2023/07/20 08:56:46;;;;;;;1.77;1.30;;;;;;;;;;5019697;28;20673;-69
2023/07/20 08:59:15;;;;;;;1.40;1.30;;;;;;;;;;5019521;28;20240;-69
2023/07/20 09:01:41;;;;;;;1.60;1.50;;;;;;;;;;5036313;28;20190;-69
2023/07/20 09:04:07;;;;;;;1.67;1.40;;;;;;;;;;5018304;28;20183;-69
2023/07/20 09:06:34;;;;;;;2.00;1.87;;;;;;;;;;5036005;28;20237;-69
2023/07/20 09:09:00;;;;;;;3.10;1.67;;;;;;;;;;5035876;28;20258;-69
2023/07/20 09:11:26;;;;;;;1.33;1.23;;;;;;;;;;5035127;28;20548;-69
2023/07/20 09:14:05;;;;;;;1.77;1.60;;;;;;;;;;5018088;28;20179;-69
2023/07/20 09:16:32;;;;;;;1.40;1.30;;;;;;;;;;5035707;28;20191;-69
2023/07/20 09:19:00;;;;;;;1.50;1.40;;;;;;;;;;5035702;28;20203;-69
2023/07/20 09:21:30;;;;;;;1.40;1.20;;;;;;;;;;5035731;28;20175;-69
2023/07/20 09:23:59;;;;;;;1.37;1.27;;;;;;;;;;5017811;28;20180;-69
2023/07/20 09:26:25;;;;;;;2.03;1.53;;;;;;;;;;5035220;28;20206;-69
2023/07/20 09:28:55;;;;;;;1.50;1.40;;;;;;;;;;5035894;28;20218;-68
2023/07/20 09:31:22;;;;;;;4.30;1.50;;;;;;;;;;5017948;28;20558;-67
2023/07/20 09:33:49;;;;;;;1.27;1.17;;;;;;;;;;5035404;28;20180;-67
2023/07/20 09:36:15;;;;;;;1.57;1.30;;;;;;;;;;5017597;28;20210;-67
2023/07/20 09:38:45;;;;;;;1.43;1.33;;;;;;;;;;5035623;28;20289;-67
2023/07/20 09:41:15;;;;;;;2.97;1.20;;;;;;;;;;5035936;28;20214;-67
2023/07/20 09:43:41;;;;;;;1.50;1.40;;;;;;;;;;5035197;28;20171;-67
2023/07/20 09:46:07;;;;;;;1.50;1.40;;;;;;;;;;5017473;28;20183;-67
2023/07/20 09:48:33;;;;;;;1.87;1.50;;;;;;;;;;5017273;28;20215;-68
2023/07/20 09:51:00;;;;;;;1.63;1.33;;;;;;;;;;5035224;28;20225;-67
2023/07/20 09:53:26;;;;;;;2.83;1.83;;;;;;;;;;5017480;28;20200;-67
2023/07/20 09:55:53;;;;;;;1.80;1.70;;;;;;;;;;5035060;28;20203;-67
2023/07/20 09:58:19;;;;;;;1.87;1.70;;;;;;;;;;5034980;28;20695;-67
2023/07/20 10:00:50;;;;;;;1.63;1.53;;;;;;;;;;5035100;28;20209;-67
2023/07/20 10:03:19;;;;;;;1.63;1.53;;;;;;;;;;5035288;28;20151;-68
2023/07/20 10:05:49;;;;;;;1.67;1.50;;;;;;;;;;5034920;28;20186;-67
2023/07/20 10:08:17;;;;;;;1.67;1.40;;;;;;;;;;5034818;28;20178;-67
2023/07/20 10:10:43;;;;;;;1.93;1.60;;;;;;;;;;5017222;28;20558;-67
2023/07/20 10:13:14;;;;;;;5.03;1.33;;;;;;;;;;5035363;28;20186;-68
2023/07/20 10:15:43;;;;;;;1.20;1.13;;;;;;;;;;5017102;28;20172;-67
2023/07/20 10:18:10;;;;;;;5.90;1.50;;;;;;;;;;5034300;28;20225;-68
2023/07/20 10:20:36;;;;;;;1.53;1.27;;;;;;;;;;5034862;28;20198;-67
2023/07/20 10:23:02;;;;;;;1.40;1.30;;;;;;;;;;5035141;28;20198;-68
2023/07/20 10:25:28;;;;;;;2.27;1.40;;;;;;;;;;5016809;28;20652;-67
2023/07/20 10:27:55;;;;;;;1.77;1.50;;;;;;;;;;5034265;28;20214;-66
2023/07/20 10:30:21;;;;;;;2.40;1.77;;;;;;;;;;5034302;28;20175;-68
2023/07/20 10:32:48;;;;;;;3.20;1.50;;;;;;;;;;5016613;28;20649;-67
2023/07/20 10:35:15;;;;;;;3.53;1.50;;;;;;;;;;5034649;28;20237;-67
2023/07/20 10:37:51;;;;;;;1.40;1.30;;;;;;;;;;5034256;28;20575;-67
2023/07/20 10:40:33;;;;;;;1.73;1.63;;;;;;;;;;5016430;28;20210;-67
2023/07/20 10:43:00;;;;;;;2.30;1.70;;;;;;;;;;5034521;28;20258;-67
2023/07/20 10:45:36;;;;;;;1.60;1.50;;;;;;;;;;5016485;28;20183;-70
2023/07/20 10:48:21;;;;;;;5.30;1.20;;;;;;;;;;5034113;28;20301;-68
2023/07/20 10:51:07;;;;;;;1.50;1.40;;;;;;;;;;5034079;28;20155;-67
2023/07/20 10:53:33;;;;;;;1.13;1.13;;;;;;;;;;5033668;28;20274;-67
2023/07/20 10:56:16;;;;;;;2.50;1.70;;;;;;;;;;5016003;28;20282;-67
2023/07/20 10:58:42;;;;;;;1.40;1.30;;;;;;;;;;5033625;28;20238;-67
2023/07/20 11:01:08;;;;;;;1.80;1.30;;;;;;;;;;5033684;28;20211;-67
2023/07/20 11:03:36;;;;;;;2.00;1.17;;;;;;;;;;5033822;28;20692;-67
2023/07/20 11:06:20;;;;;;;3.00;1.23;;;;;;;;;;5033555;28;20258;-67
2023/07/20 11:08:46;;;;;;;4.00;1.40;;;;;;;;;;5033709;28;20276;-67
2023/07/20 11:11:22;;;;;;;1.70;1.40;;;;;;;;;;5033540;28;20186;-67
2023/07/20 11:13:55;;;;;;;1.20;1.10;;;;;;;;;;5033885;28;20270;-67
2023/07/20 11:16:31;;;;;;;1.90;1.47;;;;;;;;;;5034709;28;20191;-67
2023/07/20 11:18:58;;;;;;;1.73;1.30;;;;;;;;;;5034008;28;20657;-67
2023/07/20 11:21:24;;;;;;;2.13;1.60;;;;;;;;;;5016259;28;20179;-67
2023/07/20 11:23:51;;;;;;;1.40;1.30;;;;;;;;;;5034229;28;20237;-67
2023/07/20 11:26:19;;;;;;;1.40;1.30;;;;;;;;;;5015807;28;20213;-67
2023/07/20 11:28:49;;;;;;;1.30;1.20;;;;;;;;;;5016347;28;20265;-67
2023/07/20 11:31:18;;;;;;;1.40;1.30;;;;;;;;;;5033737;28;20183;-67
2023/07/20 11:33:43;;;;;;;0.97;0.97;;;;;;;;;;5033048;28;20645;-68
2023/07/20 11:36:10;;;;;;;1.50;1.13;;;;;;;;;;5033516;28;20199;-67
2023/07/20 11:38:36;;;;;;;1.57;1.27;;;;;;;;;;5016064;28;20790;-67
2023/07/20 11:41:05;;;;;;;1.43;1.33;;;;;;;;;;5015535;28;20210;-68
2023/07/20 11:43:31;;;;;;;1.70;1.53;;;;;;;;;;5015807;28;20181;-67
2023/07/20 11:45:57;;;;;;;2.30;1.70;;;;;;;;;;5033677;28;20187;-67
2023/07/20 11:48:23;;;;;;;3.17;1.50;;;;;;;;;;5033665;28;20751;-68
2023/07/20 11:50:49;;;;;;;2.10;1.60;;;;;;;;;;5033236;28;20179;-67
2023/07/20 11:53:15;;;;;;;2.33;1.60;;;;;;;;;;5033408;28;20523;-67
2023/07/20 11:55:41;;;;;;;4.87;1.63;;;;;;;;;;5015930;28;20233;-67
2023/07/20 11:58:08;;;;;;;2.83;1.60;;;;;;;;;;5033120;28;20253;-67
2023/07/20 12:00:35;;;;;;;3.37;1.47;;;;;;;;;;5033723;28;20629;-67
2023/07/20 12:03:01;;;;;;;1.63;1.20;;;;;;;;;;5032972;28;20687;-67
2023/07/20 12:05:27;;;;;;;8.30;3.33;;;;;;;;;;5033332;28;20649;-67
2023/07/20 12:07:53;;;;;;;1.60;1.30;;;;;;;;;;5033969;28;20664;-68
2023/07/20 12:10:26;;;;;;;1.10;1.10;;;;;;;;;;5036736;28;20198;-68
2023/07/20 12:12:52;;;;;;;1.43;1.30;;;;;;;;;;5037569;28;20198;-68
2023/07/20 12:15:29;;;;;;;3.00;1.60;;;;;;;;;;5035837;28;20186;-68
2023/07/20 12:17:57;;;;;;;1.30;1.20;;;;;;;;;;5015685;28;20217;-68
2023/07/20 12:20:34;;;;;;;2.00;1.40;;;;;;;;;;5033663;28;20521;-67
2023/07/20 12:23:01;;;;;;;2.17;1.30;;;;;;;;;;5033204;28;20183;-68
2023/07/20 12:25:40;;;;;;;3.37;1.40;;;;;;;;;;5033744;28;20182;-68
2023/07/20 12:28:10;;;;;;;3.33;1.27;;;;;;;;;;5032863;28;20654;-68
2023/07/20 12:30:37;;;;;;;2.60;2.40;;;;;;;;;;5033326;28;20183;-68
2023/07/20 12:33:04;;;;;;;2.30;1.80;;;;;;;;;;5033039;28;20258;-67
2023/07/20 12:35:30;;;;;;;2.60;1.20;;;;;;;;;;5032812;28;20214;-67
2023/07/20 12:37:56;;;;;;;2.00;1.43;;;;;;;;;;5032882;28;20203;-67
2023/07/20 12:40:22;;;;;;;1.40;1.30;;;;;;;;;;5032671;28;20637;-67
2023/07/20 12:42:48;;;;;;;1.53;1.10;;;;;;;;;;5032709;28;20171;-67
2023/07/20 12:45:14;;;;;;;1.57;1.20;;;;;;;;;;5033357;28;20187;-67
2023/07/20 12:47:41;;;;;;;3.37;1.30;;;;;;;;;;5018433;28;20207;-68
2023/07/20 12:50:08;;;;;;;1.10;1.07;;;;;;;;;;5018502;28;20190;-67
2023/07/20 12:52:38;;;;;;;1.40;1.10;;;;;;;;;;5036509;28;20701;-67
2023/07/20 12:55:04;;;;;;;1.87;1.23;;;;;;;;;;5036634;28;20254;-67
2023/07/20 12:57:30;;;;;;;2.27;1.20;;;;;;;;;;5018098;28;20314;-67
2023/07/20 12:59:56;;;;;;;1.53;1.23;;;;;;;;;;5036312;28;20656;-67
2023/07/20 13:02:21;;;;;;;1.57;1.10;;;;;;;;;;5018323;28;20180;-67
2023/07/20 13:04:47;;;;;;;1.37;1.20;;;;;;;;;;5035940;28;20645;-67
2023/07/20 13:07:13;;;;;;;1.33;1.13;;;;;;;;;;5036033;28;20741;-67
2023/07/20 13:09:39;;;;;;;1.60;1.33;;;;;;;;;;5035801;28;20210;-66
2023/07/20 13:12:05;;;;;;;2.40;1.13;;;;;;;;;;5018075;28;20206;-67
2023/07/20 13:14:32;;;;;;;1.67;1.30;;;;;;;;;;5018091;28;20198;-66
2023/07/20 13:16:57;;;;;;;1.77;1.23;;;;;;;;;;5035700;28;20206;-68
2023/07/20 13:19:24;;;;;;;1.40;1.30;;;;;;;;;;5018120;28;20556;-67
2023/07/20 13:21:49;;;;;;;1.80;1.50;;;;;;;;;;5036540;28;20229;-68
2023/07/20 13:24:16;;;;;;;1.60;1.50;;;;;;;;;;5036070;28;20172;-68
2023/07/20 13:26:42;;;;;;;1.77;1.20;;;;;;;;;;5035656;28;20219;-68
2023/07/20 13:29:08;;;;;;;1.40;1.30;;;;;;;;;;5017920;28;20175;-68
2023/07/20 13:31:33;;;;;;;1.27;1.17;;;;;;;;;;5018043;28;20175;-68
2023/07/20 13:33:59;;;;;;;1.33;1.23;;;;;;;;;;5018121;28;20190;-68
2023/07/20 13:36:25;;;;;;;2.43;1.37;;;;;;;;;;5035936;28;20202;-68
2023/07/20 13:38:51;;;;;;;3.00;1.40;;;;;;;;;;5017926;28;20680;-67
2023/07/20 13:41:17;;;;;;;1.60;1.30;;;;;;;;;;5035603;28;20268;-67
2023/07/20 13:43:44;;;;;;;1.40;1.30;;;;;;;;;;5035405;28;20549;-67
2023/07/20 13:46:09;;;;;;;3.70;1.20;;;;;;;;;;5035411;28;20191;-67
2023/07/20 13:48:35;;;;;;;1.50;1.20;;;;;;;;;;5035203;28;20179;-67
2023/07/20 13:51:01;;;;;;;1.70;1.30;;;;;;;;;;5035300;28;20180;-68
2023/07/20 13:53:27;;;;;;;1.70;1.20;;;;;;;;;;5035032;28;20183;-68
2023/07/20 13:55:53;;;;;;;2.93;2.33;;;;;;;;;;5034953;28;20175;-67
2023/07/20 13:58:19;;;;;;;3.33;1.80;;;;;;;;;;5035307;28;20634;-67
2023/07/20 14:00:45;;;;;;;1.80;1.40;;;;;;;;;;5033805;28;20474;-67
2023/07/20 14:03:11;;;;;;;1.50;1.30;;;;;;;;;;5034986;28;20202;-68
2023/07/20 14:05:37;;;;;;;2.73;1.70;;;;;;;;;;5035299;28;20179;-68
2023/07/20 14:08:03;;;;;;;1.50;1.37;;;;;;;;;;5034853;28;20253;-67
2023/07/20 14:10:29;;;;;;;1.30;1.20;;;;;;;;;;5034894;28;20191;-67
2023/07/20 14:12:55;;;;;;;1.40;1.13;;;;;;;;;;5034940;28;20179;-68
2023/07/20 14:15:21;;;;;;;2.07;1.30;;;;;;;;;;5035064;28;20182;-68
2023/07/20 14:17:47;;;;;;;2.13;1.50;;;;;;;;;;5035240;28;20645;-67
2023/07/20 14:20:13;;;;;;;2.90;1.33;;;;;;;;;;5017043;28;20270;-68
2023/07/20 14:22:39;;;;;;;2.63;1.37;;;;;;;;;;5034797;28;20206;-68
2023/07/20 14:25:05;;;;;;;1.60;1.40;;;;;;;;;;5034783;28;20266;-69
2023/07/20 14:27:31;;;;;;;2.07;1.20;;;;;;;;;;5015272;28;20847;-68
2023/07/20 14:29:57;;;;;;;2.73;1.60;;;;;;;;;;5034366;28;20182;-68
2023/07/20 14:32:23;;;;;;;;;;;;;;;;;;5034702;28;20026;-67
2023/07/20 14:34:49;;;;;;;1.77;1.50;;;;;;;;;;5015434;28;20689;-67